Time;durP1;ratioP1;P1;durP2;ratioP2;P2;SDS_P1;SDS_P2;PMS_P1;PMS_P2;Temp;Humidity;BMP_temperature;BMP_pressure;BME280_temperature;BME280_humidity;BME280_pressure;Samples;Min_cycle;Max_cycle;Signal;HPM_P1;HPM_P2
2023/06/05 00:00:09;;;;;;;1.50;1.40;;;;;14.60;96126.00;;;;5013593;28;20212;-56
2023/06/05 00:02:39;;;;;;;0.80;0.80;;;;;14.50;96133.00;;;;5013984;28;20197;-56
2023/06/05 00:05:08;;;;;;;0.90;0.90;;;;;14.40;96130.00;;;;5013667;28;20223;-56
2023/06/05 00:07:37;;;;;;;0.90;0.90;;;;;14.40;96138.00;;;;5013619;28;20193;-56
2023/06/05 00:10:07;;;;;;;1.00;1.00;;;;;14.30;96137.00;;;;5014112;28;20193;-57
2023/06/05 00:12:35;;;;;;;1.00;0.97;;;;;14.20;96136.00;;;;5013608;28;20193;-60
2023/06/05 00:15:02;;;;;;;5.03;1.00;;;;;14.20;96135.00;;;;5013509;28;20240;-56
2023/06/05 00:17:30;;;;;;;2.57;1.00;;;;;14.10;96140.00;;;;5013509;28;20286;-56
2023/06/05 00:19:59;;;;;;;0.50;0.50;;;;;14.10;96133.00;;;;5013464;28;20232;-56
2023/06/05 00:22:28;;;;;;;2.00;1.17;;;;;14.00;96133.00;;;;5015635;28;20276;-56
2023/06/05 00:24:55;;;;;;;0.90;0.90;;;;;14.00;96137.00;;;;5017503;28;20678;-56
2023/06/05 00:27:24;;;;;;;0.90;0.90;;;;;13.90;96132.00;;;;5017716;28;20197;-56
2023/06/05 00:29:52;;;;;;;0.60;0.60;;;;;13.90;96127.00;;;;5017449;28;20190;-56
2023/06/05 00:32:19;;;;;;;0.90;0.87;;;;;13.80;96132.00;;;;5017613;28;20226;-56
2023/06/05 00:34:49;;;;;;;0.83;0.83;;;;;13.70;96129.00;;;;5017647;28;20192;-56
2023/06/05 00:37:18;;;;;;;1.00;1.00;;;;;13.80;96126.00;;;;5017343;28;20675;-56
2023/06/05 00:39:45;;;;;;;1.27;1.27;;;;;13.80;96125.00;;;;5017438;28;20660;-56
2023/06/05 00:42:13;;;;;;;1.33;0.90;;;;;13.60;96130.00;;;;5015873;28;20715;-56
2023/06/05 00:44:41;;;;;;;0.67;0.67;;;;;13.60;96123.00;;;;5017064;28;20227;-56
2023/06/05 00:47:09;;;;;;;0.70;0.70;;;;;13.60;96126.00;;;;5017112;28;20193;-57
2023/06/05 00:49:37;;;;;;;1.10;1.03;;;;;13.70;96127.00;;;;5017335;28;20226;-55
2023/06/05 00:52:05;;;;;;;1.00;1.00;;;;;13.70;96120.00;;;;5017186;28;20213;-57
2023/06/05 00:54:32;;;;;;;1.27;1.27;;;14.50;42.20;13.60;96123.00;;;;5017157;28;20186;-55
2023/06/05 00:56:59;;;;;;;0.87;0.87;;;14.30;43.00;13.50;96122.00;;;;5016908;28;20185;-56
2023/06/05 00:59:28;;;;;;;0.80;0.80;;;14.20;42.90;13.50;96128.00;;;;5016870;28;20209;-55
2023/06/05 01:01:56;;;;;;;0.80;0.80;;;14.30;42.80;13.50;96112.00;;;;5016963;28;20216;-55
2023/06/05 01:04:24;;;;;;;0.80;0.80;;;14.20;43.50;13.40;96121.00;;;;5016701;28;20598;-55
2023/06/05 01:06:53;;;;;;;0.70;0.70;;;14.20;42.70;13.40;96126.00;;;;5016757;28;20189;-56
2023/06/05 01:09:20;;;;;;;0.57;0.57;;;14.20;42.80;13.50;96124.00;;;;5017101;28;20276;-56
2023/06/05 01:11:59;;;;;;;0.70;0.70;;;14.20;42.70;13.50;96121.00;;;;5016653;28;20205;-55
2023/06/05 01:14:32;;;;;;;1.13;1.13;;;14.20;42.40;13.40;96124.00;;;;5016996;28;20182;-56
2023/06/05 01:17:08;;;;;;;0.90;0.90;;;14.10;42.30;13.30;96124.00;;;;5015376;28;20189;-56
2023/06/05 01:19:36;;;;;;;0.90;0.90;;;14.00;42.70;13.20;96128.00;;;;5017278;28;20287;-56
2023/06/05 01:22:03;;;;;;;0.70;0.70;;;13.90;43.40;13.10;96122.00;;;;5016501;28;20591;-56
2023/06/05 01:24:32;;;;;;;0.60;0.60;;;13.90;43.70;13.10;96124.00;;;;5016555;28;20661;-56
2023/06/05 01:27:11;;;;;;;1.80;1.33;;;13.80;44.40;13.10;96127.00;;;;5016314;28;20196;-56
2023/06/05 01:29:52;;;;;;;0.93;0.93;;;13.80;44.50;13.00;96116.00;;;;5016620;28;20178;-55
2023/06/05 01:32:29;;;;;;;0.63;0.63;;;13.70;44.70;12.80;96124.00;;;;5016390;28;20711;-56
2023/06/05 01:34:58;;;;;;;0.70;0.70;;;13.60;44.90;12.80;96114.00;;;;5015337;28;20178;-56
2023/06/05 01:37:28;;;;;;;1.17;1.07;;;13.50;44.80;12.90;96119.00;;;;5016422;28;20235;-56
2023/06/05 01:39:58;;;;;;;0.70;0.70;;;13.50;45.20;12.80;96119.00;;;;5016177;28;20190;-56
2023/06/05 01:42:27;;;;;;;1.00;1.00;;;13.40;45.00;12.90;96112.00;;;;5016227;28;20185;-56
2023/06/05 01:44:54;;;;;;;0.87;0.87;;;13.50;45.20;12.90;96110.00;;;;5015999;28;20764;-56
2023/06/05 01:47:22;;;;;;;0.60;0.60;;;13.50;45.10;13.00;96117.00;;;;5016248;28;20185;-56
2023/06/05 01:49:49;;;;;;;0.60;0.60;;;13.60;45.00;12.90;96116.00;;;;5015932;28;20669;-55
2023/06/05 01:52:16;;;;;;;0.60;0.60;;;13.60;44.20;12.70;96114.00;;;;5015861;28;20625;-56
2023/06/05 01:54:44;;;;;;;2.43;1.07;;;13.50;44.50;12.70;96115.00;;;;5015862;28;20696;-56
2023/06/05 01:57:12;;;;;;;1.43;1.00;;;13.40;45.00;12.60;96114.00;;;;5016070;28;20192;-56
2023/06/05 01:59:39;;;;;;;0.80;0.80;;;13.30;45.50;12.60;96115.00;;;;5015804;28;20190;-58
2023/06/05 02:02:07;;;;;;;1.10;1.00;;;13.20;45.80;12.60;96111.00;;;;5015730;28;20325;-57
2023/06/05 02:04:37;;;;;;;0.60;0.60;;;;;12.50;96115.00;;;;5015619;28;20186;-55
2023/06/05 02:07:05;;;;;;;0.70;0.70;;;;;12.50;96105.00;;;;5016073;28;20200;-56
2023/06/05 02:09:33;;;;;;;1.10;1.10;;;;;12.40;96101.00;;;;5014446;28;20197;-55
2023/06/05 02:12:03;;;;;;;0.60;0.60;;;;;12.30;96111.00;;;;5015462;28;20412;-55
2023/06/05 02:14:35;;;;;;;0.80;0.80;;;;;12.20;96107.00;;;;5014214;28;20679;-56
2023/06/05 02:17:04;;;;;;;4.73;1.23;;;;;12.10;96108.00;;;;5015545;28;20178;-56
2023/06/05 02:19:32;;;;;;;1.00;1.00;;;;;12.10;96107.00;;;;5015628;28;20201;-56
2023/06/05 02:21:59;;;;;;;0.70;0.70;;;;;12.10;96112.00;;;;5015179;28;20229;-56
2023/06/05 02:24:27;;;;;;;0.80;0.80;;;;;12.20;96115.00;;;;5015510;28;20232;-55
2023/06/05 02:26:54;;;;;;;0.60;0.60;;;;;12.10;96116.00;;;;5015139;28;20248;-58
2023/06/05 02:29:22;;;;;;;0.50;0.50;;;;;12.10;96116.00;;;;5015178;28;20252;-56
2023/06/05 02:31:50;;;;;;;3.80;0.90;;;;;12.00;96115.00;;;;5013758;28;20218;-56
2023/06/05 02:34:19;;;;;;;0.70;0.70;;;;;12.00;96114.00;;;;5015197;28;20200;-55
2023/06/05 02:36:46;;;;;;;1.20;1.10;;;;;11.80;96109.00;;;;5015315;28;20217;-56
2023/06/05 02:39:14;;;;;;;0.60;0.60;;;;;11.90;96105.00;;;;5015548;28;20197;-56
2023/06/05 02:41:44;;;;;;;1.33;1.17;;;;;12.00;96108.00;;;;5015095;28;20572;-57
2023/06/05 02:44:11;;;;;;;3.47;1.43;;;;;11.90;96102.00;;;;5013556;28;20580;-55
2023/06/05 02:46:39;;;;;;;0.80;0.80;;;;;11.90;96104.00;;;;5014993;28;20576;-56
2023/06/05 02:49:07;;;;;;;0.80;0.80;;;;;11.90;96103.00;;;;5015476;28;20272;-56
2023/06/05 02:51:35;;;;;;;0.60;0.60;;;;;11.90;96104.00;;;;5014813;28;20712;-55
2023/06/05 02:54:03;;;;;;;0.50;0.50;;;;;12.00;96102.00;;;;5015758;28;20281;-56
2023/06/05 02:56:31;;;;;;;1.23;1.23;;;;;11.90;96100.00;;;;5015208;28;20201;-56
2023/06/05 02:59:02;;;;;;;0.73;0.73;;;;;11.90;96104.00;;;;5015653;28;20197;-56
2023/06/05 03:01:34;;;;;;;0.60;0.60;;;;;11.80;96103.00;;;;5014848;28;20213;-56
2023/06/05 03:04:02;;;;;;;0.83;0.83;;;;;11.80;96101.00;;;;5014639;28;20185;-56
2023/06/05 03:06:33;;;;;;;0.73;0.73;;;;;11.80;96094.00;;;;5014678;28;20583;-56
2023/06/05 03:09:01;;;;;;;0.60;0.60;;;;;11.80;96099.00;;;;5014493;28;20192;-56
2023/06/05 03:11:28;;;;;;;1.20;1.10;;;;;11.70;96103.00;;;;5014605;28;20267;-56
2023/06/05 03:13:56;;;;;;;0.83;0.83;;;;;11.50;96097.00;;;;5014627;28;20280;-56
2023/06/05 03:16:23;;;;;;;0.83;0.83;;;12.40;47.40;11.70;96097.00;;;;5014298;28;20645;-56
2023/06/05 03:18:50;;;;;;;0.60;0.60;;;12.40;48.00;11.70;96099.00;;;;5014271;28;20194;-56
2023/06/05 03:21:17;;;;;;;1.67;1.57;;;12.40;47.90;11.60;96087.00;;;;5014153;28;20228;-56
2023/06/05 03:23:46;;;;;;;1.23;1.20;;;12.30;48.10;11.50;96097.00;;;;5014568;28;20197;-56
2023/06/05 03:26:13;;;;;;;0.83;0.83;;;12.20;48.40;11.50;96094.00;;;;5014140;28;20296;-56
2023/06/05 03:28:40;;;;;;;0.70;0.70;;;12.20;48.50;11.60;96097.00;;;;5014192;28;20261;-56
2023/06/05 03:31:07;;;;;;;0.70;0.70;;;12.30;48.40;11.50;96096.00;;;;5014157;28;20213;-56
2023/06/05 03:33:34;;;;;;;0.60;0.60;;;12.20;48.30;11.40;96102.00;;;;5014084;28;20201;-55
2023/06/05 03:36:01;;;;;;;1.03;0.93;;;12.10;48.80;11.40;96102.00;;;;5014315;28;20656;-56
2023/06/05 03:38:28;;;;;;;0.63;0.63;;;12.00;49.00;11.30;96100.00;;;;5012783;28;20189;-55
2023/06/05 03:40:57;;;;;;;0.70;0.70;;;11.90;49.10;11.30;96109.00;;;;5013896;28;20580;-56
2023/06/05 03:43:24;;;;;;;0.77;0.77;;;12.00;49.30;11.30;96098.00;;;;5014115;28;20656;-56
2023/06/05 03:45:53;;;;;;;0.60;0.60;;;12.00;49.00;11.30;96102.00;;;;5013806;28;20300;-55
2023/06/05 03:48:20;;;;;;;0.80;0.80;;;12.00;49.10;11.30;96100.00;;;;5014116;28;20545;-56
2023/06/05 03:50:47;;;;;;;0.60;0.60;;;12.00;49.30;11.30;96102.00;;;;5014135;28;20213;-56
2023/06/05 03:53:14;;;;;;;19.93;1.30;;;11.90;49.00;11.20;96100.00;;;;5013750;28;20196;-55
2023/06/05 03:55:41;;;;;;;0.77;0.77;;;12.00;48.90;11.20;96105.00;;;;5013766;28;20239;-56
2023/06/05 03:58:15;;;;;;;2.03;1.17;;;11.90;48.70;11.30;96102.00;;;;5013179;28;20192;-56
2023/06/05 04:00:43;;;;;;;1.30;1.00;;;11.90;48.90;11.30;96108.00;;;;5013811;28;20268;-56
2023/06/05 04:03:10;;;;;;;0.50;0.50;;;11.90;48.70;11.20;96098.00;;;;5013664;28;20657;-55
2023/06/05 04:05:39;;;;;;;0.63;0.63;;;11.90;48.90;11.20;96100.00;;;;5013545;28;20585;-56
2023/06/05 04:08:07;;;;;;;1.07;1.07;;;11.90;48.80;11.10;96106.00;;;;5013770;28;20186;-55
2023/06/05 04:10:34;;;;;;;1.07;0.90;;;11.90;48.90;11.20;96101.00;;;;5013499;28;20281;-60
2023/06/05 04:13:02;;;;;;;0.70;0.70;;;11.90;49.20;11.30;96107.00;;;;5013489;28;20198;-56
2023/06/05 04:15:31;;;;;;;0.70;0.70;;;11.90;49.00;11.20;96109.00;;;;5013526;28;20276;-58
2023/06/05 04:17:58;;;;;;;0.70;0.70;;;11.90;48.90;11.30;96107.00;;;;5013488;28;20192;-56
2023/06/05 04:20:25;;;;;;;1.40;1.30;;;11.90;49.10;11.50;96110.00;;;;5013565;28;20228;-56
2023/06/05 04:22:53;;;;;;;1.10;1.07;;;12.00;48.30;11.50;96107.00;;;;5013746;28;20178;-56
2023/06/05 04:25:20;;;;;;;1.83;1.73;;;12.20;48.30;11.50;96114.00;;;;5013324;28;20668;-55
2023/06/05 04:27:50;;;;;;;0.80;0.80;;;12.20;48.30;11.50;96113.00;;;;5013641;28;20560;-56
2023/06/05 04:30:17;;;;;;;1.23;1.13;;;12.20;48.20;11.60;96104.00;;;;5013602;28;20220;-56
2023/06/05 04:32:52;;;;;;;1.20;1.10;;;12.20;48.20;11.70;96100.00;;;;5013853;28;20193;-56
2023/06/05 04:35:20;;;;;;;0.60;0.60;;;12.30;48.50;11.60;96112.00;;;;5013374;28;20641;-56
2023/06/05 04:37:48;;;;;;;0.97;0.97;;;12.30;48.10;11.60;96109.00;;;;5013315;28;20201;-56
2023/06/05 04:40:20;;;;;;;0.60;0.60;;;12.20;48.10;11.50;96109.00;;;;5013473;28;20192;-56
2023/06/05 04:42:47;;;;;;;1.03;0.97;;;12.20;48.30;11.50;96115.00;;;;5013869;28;20213;-56
2023/06/05 04:45:16;;;;;;;0.80;0.80;;;12.20;48.40;11.60;96108.00;;;;5013235;28;20194;-56
2023/06/05 04:47:45;;;;;;;1.03;1.03;;;12.30;48.50;11.60;96112.00;;;;5013071;28;20252;-55
2023/06/05 04:50:25;;;;;;;0.80;0.80;;;12.20;48.50;11.70;96108.00;;;;5013396;28;20201;-56
2023/06/05 04:52:53;;;;;;;0.87;0.87;;;12.30;48.60;11.70;96106.00;;;;5013111;28;20656;-56
2023/06/05 04:55:20;;;;;;;1.03;1.03;;;12.30;48.50;11.70;96111.00;;;;5013182;28;20248;-56
2023/06/05 04:57:48;;;;;;;0.90;0.90;;;12.40;48.50;11.70;96100.00;;;;5013379;28;20534;-56
2023/06/05 05:00:16;;;;;;;0.70;0.70;;;12.40;49.10;11.70;96110.00;;;;5013186;28;20209;-56
2023/06/05 05:02:44;;;;;;;0.80;0.80;;;12.30;48.90;11.80;96106.00;;;;5013008;28;20194;-56
2023/06/05 05:05:15;;;;;;;1.00;1.00;;;12.40;49.10;11.90;96105.00;;;;5013335;28;20201;-56
2023/06/05 05:07:42;;;;;;;1.10;1.10;;;12.40;48.90;11.90;96107.00;;;;5014164;28;20205;-56
2023/06/05 05:10:10;;;;;;;0.70;0.70;;;12.40;48.80;12.00;96103.00;;;;5016748;28;20197;-56
2023/06/05 05:12:38;;;;;;;1.33;1.27;;;12.60;48.60;12.00;96112.00;;;;5016650;28;20194;-56
2023/06/05 05:15:07;;;;;;;0.87;0.87;;;12.60;48.60;12.10;96103.00;;;;5016888;28;20197;-55
2023/06/05 05:17:34;;;;;;;0.90;0.90;;;12.60;48.90;12.20;96109.00;;;;5016581;28;20216;-57
2023/06/05 05:20:04;;;;;;;0.93;0.93;;;12.70;49.10;12.20;96108.00;;;;5016466;28;20190;-56
2023/06/05 05:22:31;;;;;;;1.07;1.07;;;12.80;48.50;12.40;96117.00;;;;5016444;28;20757;-56
2023/06/05 05:24:58;;;;;;;1.27;1.23;;;13.00;48.80;12.40;96112.00;;;;5016968;28;20194;-56
2023/06/05 05:27:25;;;;;;;1.23;1.13;;;13.00;48.70;12.50;96111.00;;;;5015037;28;20695;-56
2023/06/05 05:29:52;;;;;;;0.93;0.93;;;13.10;48.90;12.70;96113.00;;;;5016412;28;20244;-56
2023/06/05 05:32:19;;;;;;;1.00;1.00;;;13.20;48.40;12.90;96122.00;;;;5016307;28;20213;-55
2023/06/05 05:34:47;;;;;;;0.90;0.90;;;13.40;48.20;12.70;96117.00;;;;5016186;28;20194;-56
2023/06/05 05:37:15;;;;;;;1.10;1.10;;;13.30;48.20;12.70;96114.00;;;;5016135;28;20526;-56
2023/06/05 05:39:42;;;;;;;1.17;1.17;;;13.40;48.60;12.80;96118.00;;;;5016464;28;20200;-56
2023/06/05 05:42:09;;;;;;;0.90;0.90;;;13.40;48.60;12.90;96120.00;;;;5016313;28;20672;-55
2023/06/05 05:44:37;;;;;;;1.37;1.33;;;13.50;48.60;13.10;96126.00;;;;5016169;28;20189;-56
2023/06/05 05:47:05;;;;;;;0.80;0.80;;;13.60;48.30;13.20;96122.00;;;;5016234;28;20224;-56
2023/06/05 05:49:32;;;;;;;0.90;0.90;;;13.70;47.80;13.30;96125.00;;;;5015984;28;20194;-56
2023/06/05 05:51:59;;;;;;;1.10;1.10;;;13.80;47.80;13.50;96123.00;;;;5014695;28;20726;-56
2023/06/05 05:54:27;;;;;;;0.80;0.80;;;14.00;47.10;13.50;96121.00;;;;5015959;28;20194;-56
2023/06/05 05:56:55;;;;;;;0.90;0.90;;;14.10;46.70;13.50;96124.00;;;;5015889;28;20193;-56
2023/06/05 05:59:22;;;;;;;0.67;0.67;;;14.10;46.50;13.70;96125.00;;;;5014979;28;20315;-56
2023/06/05 06:01:50;;;;;;;0.70;0.70;;;14.20;46.30;13.90;96142.00;;;;5010487;28;20245;-56
2023/06/05 06:04:18;;;;;;;0.80;0.80;;;14.40;46.10;14.10;96130.00;;;;5012043;28;20560;-57
2023/06/05 06:06:47;;;;;;;1.13;1.13;;;14.50;45.60;14.00;96122.00;;;;5013849;28;20248;-57
2023/06/05 06:09:18;;;;;;;7.37;0.90;;;14.60;45.50;14.00;96121.00;;;;5013668;28;20215;-57
2023/06/05 06:11:46;;;;;;;1.30;1.20;;;14.70;45.50;14.20;96115.00;;;;5013673;28;20209;-57
2023/06/05 06:14:13;;;;;;;1.03;1.03;;;14.70;46.00;14.30;96117.00;;;;5013727;28;20233;-57
2023/06/05 06:16:42;;;;;;;0.63;0.63;;;14.90;45.80;14.40;96112.00;;;;5011662;28;20198;-56
2023/06/05 06:19:14;;;;;;;0.87;0.87;;;15.00;45.80;14.50;96118.00;;;;5012863;28;20220;-56
2023/06/05 06:21:41;;;;;;;0.83;0.83;;;15.10;45.50;14.80;96117.00;;;;5011844;28;20225;-57
2023/06/05 06:24:08;;;;;;;1.67;1.57;;;15.20;45.00;14.60;96121.00;;;;5013348;28;20205;-57
2023/06/05 06:26:38;;;;;;;1.50;1.03;;;15.20;45.60;14.60;96118.00;;;;5011780;28;20213;-57
2023/06/05 06:29:08;;;;;;;0.57;0.57;;;15.20;46.30;14.70;96113.00;;;;5013182;28;20244;-57
2023/06/05 06:31:36;;;;;;;1.00;1.00;;;15.30;45.50;15.10;96113.00;;;;5012791;28;20240;-57
2023/06/05 06:34:03;;;;;;;1.03;1.03;;;15.50;45.80;15.10;96120.00;;;;5013639;28;20593;-57
2023/06/05 06:36:30;;;;;;;2.57;1.63;;;15.60;45.30;15.20;96122.00;;;;5013159;28;20744;-56
2023/06/05 06:38:57;;;;;;;1.23;1.23;;;15.70;45.50;15.30;96113.00;;;;5013072;28;20284;-56
2023/06/05 06:41:26;;;;;;;0.80;0.80;;;15.80;45.10;15.60;96123.00;;;;5012951;28;20213;-57
2023/06/05 06:43:53;;;;;;;0.70;0.70;;;16.00;43.70;15.70;96121.00;;;;5012875;28;20680;-57
2023/06/05 06:46:21;;;;;;;0.90;0.90;;;16.20;42.50;15.80;96118.00;;;;5012969;28;20193;-56
2023/06/05 06:48:48;;;;;;;0.70;0.70;;;16.30;41.90;16.00;96121.00;;;;5010675;28;20204;-56
2023/06/05 06:51:15;;;;;;;0.50;0.50;;;16.40;40.30;16.00;96112.00;;;;5013062;28;20283;-56
2023/06/05 06:53:44;;;;;;;0.90;0.90;;;16.50;38.30;16.20;96123.00;;;;5012817;28;20193;-57
2023/06/05 06:56:11;;;;;;;0.80;0.80;;;16.60;39.00;16.20;96114.00;;;;5012811;28;20201;-57
2023/06/05 06:58:38;;;;;;;0.80;0.80;;;16.60;38.50;16.40;96115.00;;;;5012814;28;20193;-57
2023/06/05 07:01:06;;;;;;;3.03;1.47;;;16.70;38.30;16.40;96114.00;;;;5012612;28;20309;-57
2023/06/05 07:03:34;;;;;;;0.50;0.50;;;16.80;37.80;16.70;96112.00;;;;5011424;28;20205;-57
2023/06/05 07:06:01;;;;;;;0.70;0.70;;;17.10;38.50;16.80;96115.00;;;;5012678;28;20197;-57
2023/06/05 07:08:28;;;;;;;1.40;1.30;;;17.20;38.00;17.00;96112.00;;;;5012507;28;20213;-59
2023/06/05 07:10:56;;;;;;;1.93;1.83;;;17.40;37.20;16.70;96107.00;;;;5012535;28;20746;-57
2023/06/05 07:13:23;;;;;;;1.40;1.30;;;17.30;36.70;16.90;96111.00;;;;5012514;28;20345;-57
2023/06/05 07:15:50;;;;;;;0.90;0.90;;;17.30;37.40;17.20;96105.00;;;;5012315;28;20537;-57
2023/06/05 07:18:19;;;;;;;0.83;0.83;;;17.50;37.30;17.30;96113.00;;;;5010987;28;20201;-57
2023/06/05 07:20:48;;;;;;;0.50;0.50;;;17.70;37.40;17.40;96104.00;;;;5010519;28;20280;-57
2023/06/05 07:23:17;;;;;;;1.00;1.00;;;17.80;37.10;17.30;96108.00;;;;5012053;28;20193;-57
2023/06/05 07:25:44;;;;;;;0.50;0.50;;;17.80;36.80;17.40;96109.00;;;;5007690;28;20193;-57
2023/06/05 07:28:12;;;;;;;0.53;0.53;;;17.90;37.00;17.70;96108.00;;;;5012526;28;20213;-57
2023/06/05 07:30:43;;;;;;;0.70;0.70;;;18.00;37.60;17.80;96106.00;;;;5012526;28;20217;-57
2023/06/05 07:33:10;;;;;;;4.53;1.57;;;18.20;37.00;17.90;96105.00;;;;5011592;28;20193;-57
2023/06/05 07:35:38;;;;;;;1.23;1.23;;;18.20;36.80;18.10;96107.00;;;;5012014;28;20200;-57
2023/06/05 07:38:06;;;;;;;1.10;1.10;;;18.40;36.40;18.30;96103.00;;;;5012169;28;20602;-57
2023/06/05 07:40:33;;;;;;;4.03;2.17;;;18.60;36.00;18.50;96098.00;;;;5011788;28;20239;-57
2023/06/05 07:43:00;;;;;;;0.93;0.93;;;18.80;35.90;18.40;96104.00;;;;5010735;28;20193;-57
2023/06/05 07:45:28;;;;;;;0.80;0.80;;;;;18.40;96101.00;;;;5012219;28;20193;-57
2023/06/05 07:47:55;;;;;;;1.73;1.63;;;18.90;35.10;18.60;96102.00;;;;5011154;28;20213;-57
2023/06/05 07:50:23;;;;;;;1.20;1.20;;;19.00;35.80;18.80;96104.00;;;;5011802;28;20308;-57
2023/06/05 07:52:51;;;;;;;0.97;0.80;;;;;18.90;96097.00;;;;5011459;28;20193;-57
2023/06/05 07:55:19;;;;;;;0.70;0.70;;;19.30;34.50;19.10;96094.00;;;;5011619;28;20225;-57
2023/06/05 07:57:46;;;;;;;1.17;1.17;;;19.40;35.10;19.40;96091.00;;;;5011830;28;20584;-55
2023/06/05 08:00:15;;;;;;;1.30;1.20;;;19.70;33.40;19.40;96100.00;;;;5011585;28;20201;-57
2023/06/05 08:02:43;;;;;;;0.70;0.70;;;19.70;33.00;19.60;96092.00;;;;5011247;28;20307;-57
2023/06/05 08:05:10;;;;;;;0.60;0.60;;;19.90;36.10;19.70;96107.00;;;;5012195;28;20547;-57
2023/06/05 08:07:37;;;;;;;0.50;0.50;;;20.10;32.10;19.50;96108.00;;;;5009929;28;20224;-58
2023/06/05 08:10:07;;;;;;;3.73;1.37;;;20.10;31.60;19.70;96097.00;;;;5010793;28;20194;-57
2023/06/05 08:12:36;;;;;;;1.07;1.07;;;20.10;32.20;19.80;96108.00;;;;5011288;28;20204;-57
2023/06/05 08:15:03;;;;;;;1.00;1.00;;;20.20;32.20;19.90;96105.00;;;;5012022;28;20272;-57
2023/06/05 08:17:30;;;;;;;1.10;0.77;;;20.30;31.40;19.80;96114.00;;;;5011663;28;20202;-57
2023/06/05 08:19:57;;;;;;;1.90;1.40;;;20.30;31.70;19.80;96104.00;;;;5011466;28;20205;-57
2023/06/05 08:22:24;;;;;;;1.88;1.77;;;20.30;31.50;20.00;96107.00;;;;5010880;28;20221;-58
2023/06/05 08:24:54;;;;;;;0.98;0.98;;;20.40;31.60;20.10;96099.00;;;;5010518;28;20197;-58
2023/06/05 08:27:21;;;;;;;1.07;1.07;;;20.50;31.80;20.30;96107.00;;;;5009485;28;20216;-57
2023/06/05 08:29:51;;;;;;;1.25;1.20;;;20.60;31.50;20.50;96103.00;;;;5011683;28;20277;-58
2023/06/05 08:32:20;;;;;;;1.45;1.35;;;20.80;30.70;20.50;96100.00;;;;5011015;28;20237;-58
2023/06/05 08:34:47;;;;;;;2.70;2.00;;;20.90;30.60;20.60;96103.00;;;;5011634;28;20194;-57
2023/06/05 08:37:14;;;;;;;0.80;0.80;;;20.90;30.80;20.60;96090.00;;;;5010964;28;20204;-60
2023/06/05 08:39:42;;;;;;;0.70;0.70;;;;;20.60;96098.00;;;;5010740;28;20598;-57
2023/06/05 08:42:10;;;;;;;0.82;0.82;;;21.00;30.70;20.90;96099.00;;;;5010862;28;20227;-58
2023/06/05 08:44:37;;;;;;;1.25;1.15;;;21.20;32.10;21.00;96102.00;;;;5015628;28;20219;-57
2023/06/05 08:47:08;;;;;;;0.57;0.57;;;;;21.00;96104.00;;;;5015003;28;20220;-57
2023/06/05 08:49:42;;;;;;;3.13;1.15;;;21.40;31.60;21.30;96098.00;;;;5015275;28;20194;-56
2023/06/05 08:52:11;;;;;;;1.58;1.30;;;21.60;32.50;21.10;96099.00;;;;5015137;28;20214;-57
2023/06/05 08:54:39;;;;;;;0.65;0.65;;;;;21.20;96084.00;;;;5015083;28;20196;-57
2023/06/05 08:57:08;;;;;;;1.08;1.08;;;21.60;34.10;21.50;96093.00;;;;5012620;28;20197;-56
2023/06/05 08:59:36;;;;;;;1.30;1.20;;;21.80;34.40;21.60;96092.00;;;;5014929;28;20220;-56
2023/06/05 09:02:04;;;;;;;1.60;1.48;;;21.90;32.60;21.70;96098.00;;;;5014380;28;20209;-56
2023/06/05 09:04:33;;;;;;;1.58;1.27;;;;;21.80;96100.00;;;;5015190;28;20198;-56
2023/06/05 09:07:00;;;;;;;2.10;1.95;;;;;21.60;96101.00;;;;5014251;28;20193;-56
2023/06/05 09:09:28;;;;;;;0.60;0.60;;;22.00;33.10;21.70;96099.00;;;;5013495;28;20664;-56
2023/06/05 09:12:06;;;;;;;1.23;1.13;;;22.10;33.50;21.90;96098.00;;;;5014610;28;20213;-57
2023/06/05 09:14:35;;;;;;;3.03;1.70;;;22.20;32.50;21.70;96099.00;;;;5014700;28;20198;-57
2023/06/05 09:17:05;;;;;;;0.65;0.65;;;22.20;31.50;21.80;96097.00;;;;5014680;28;20197;-57
2023/06/05 09:19:42;;;;;;;1.48;1.38;;;22.20;32.50;22.10;96097.00;;;;5014604;28;20344;-57
2023/06/05 09:22:12;;;;;;;1.27;1.15;;;22.40;33.30;22.20;96099.00;;;;5014433;28;20271;-57
2023/06/05 09:24:41;;;;;;;4.03;0.82;;;;;22.30;96098.00;;;;5014489;28;20259;-57
2023/06/05 09:27:10;;;;;;;0.80;0.80;;;22.60;32.00;22.10;96099.00;;;;5014652;28;20566;-57
2023/06/05 09:29:39;;;;;;;2.38;1.40;;;22.60;32.30;22.10;96094.00;;;;5014743;28;20687;-57
2023/06/05 09:32:09;;;;;;;0.80;0.80;;;22.50;33.50;22.30;96093.00;;;;5013893;28;20267;-57
2023/06/05 09:34:40;;;;;;;1.35;1.27;;;22.60;32.80;22.60;96098.00;;;;5014683;28;20193;-57
2023/06/05 09:37:08;;;;;;;1.00;1.00;;;22.80;33.60;22.20;96092.00;;;;5014401;28;20186;-56
2023/06/05 09:39:38;;;;;;;0.77;0.77;;;22.60;32.60;22.10;96090.00;;;;5014562;28;20201;-57
2023/06/05 09:42:06;;;;;;;1.48;1.35;;;22.60;32.80;22.40;96091.00;;;;5013970;28;20221;-57
2023/06/05 09:44:36;;;;;;;0.68;0.68;;;22.80;32.60;22.70;96086.00;;;;5014722;28;20248;-56
2023/06/05 09:47:07;;;;;;;0.90;0.90;;;23.00;33.00;23.00;96098.00;;;;5009621;28;20197;-58
2023/06/05 09:49:48;;;;;;;1.35;1.25;;;;;23.20;96087.00;;;;5013985;28;20269;-56
2023/06/05 09:52:16;;;;;;;0.90;0.90;;;23.50;31.90;23.30;96088.00;;;;5013445;28;20244;-56
2023/06/05 09:54:45;;;;;;;1.67;1.58;;;23.50;32.30;23.00;96092.00;;;;5013367;28;20200;-57
2023/06/05 09:57:14;;;;;;;2.95;1.88;;;23.40;31.30;23.10;96085.00;;;;5013521;28;20210;-56
2023/06/05 09:59:51;;;;;;;1.33;1.13;;;23.50;31.20;23.20;96077.00;;;;5014147;28;20197;-56
2023/06/05 10:02:21;;;;;;;1.17;1.17;;;23.50;30.90;23.60;96075.00;;;;5013492;28;20633;-57
2023/06/05 10:04:57;;;;;;;0.75;0.75;;;23.80;31.10;23.90;96077.00;;;;5014702;28;20198;-57
2023/06/05 10:07:25;;;;;;;1.40;1.10;;;24.10;29.90;24.10;96084.00;;;;5013709;28;20549;-56
2023/06/05 10:09:53;;;;;;;2.03;1.90;;;24.40;30.70;24.00;96078.00;;;;5013571;28;20276;-57
2023/06/05 10:12:21;;;;;;;3.80;1.25;;;24.30;29.40;24.30;96071.00;;;;5013407;28;20217;-56
2023/06/05 10:14:51;;;;;;;1.02;1.02;;;24.50;29.80;24.50;96074.00;;;;5013467;28;20193;-58
2023/06/05 10:17:19;;;;;;;5.03;2.42;;;24.70;29.90;24.60;96082.00;;;;5013067;28;20272;-56
2023/06/05 10:19:46;;;;;;;0.98;0.98;;;24.80;29.60;24.80;96079.00;;;;5013596;28;20198;-56
2023/06/05 10:22:18;;;;;;;1.15;1.05;;;25.10;29.20;24.30;96088.00;;;;5012320;28;20228;-56
2023/06/05 10:24:51;;;;;;;0.80;0.80;;;24.80;27.60;24.30;96073.00;;;;5012434;28;20662;-56
2023/06/05 10:27:57;;;;;;;1.50;1.40;;;24.70;29.10;24.10;96075.00;;;;5012989;28;20194;-56
2023/06/05 10:31:15;;;;;;;1.60;1.50;;;24.60;30.30;24.90;96081.00;;;;4998824;28;20229;-60
2023/06/05 10:34:06;;;;;;;6.32;1.45;;;25.10;29.30;24.80;96068.00;;;;5013245;28;20197;-57
2023/06/05 10:37:05;;;;;;;1.13;1.13;;;25.00;28.90;25.00;96081.00;;;;5011999;28;20209;-57
2023/06/05 10:39:35;;;;;;;1.00;1.00;;;25.30;27.90;24.60;96086.00;;;;5011932;28;20243;-55
2023/06/05 10:42:02;;;;;;;2.08;1.23;;;25.10;28.10;24.90;96074.00;;;;5011320;28;20233;-58
2023/06/05 10:44:43;;;;;;;1.48;1.38;;;25.30;29.10;25.20;96066.00;;;;5013048;28;20752;-56
2023/06/05 10:47:52;;;;;;;1.38;1.33;;;25.40;27.90;25.40;96064.00;;;;5013199;28;20196;-58
2023/06/05 10:50:30;;;;;;;0.77;0.77;;;25.80;27.30;25.50;96076.00;;;;5013086;28;20275;-56
2023/06/05 10:52:58;;;;;;;0.90;0.90;;;25.70;26.50;25.80;96079.00;;;;5012989;28;20603;-57
2023/06/05 10:55:41;;;;;;;0.85;0.85;;;26.00;25.70;25.20;96071.00;;;;5012964;28;20256;-57
2023/06/05 10:58:13;;;;;;;1.20;1.20;;;25.70;25.10;25.30;96073.00;;;;5012917;28;20194;-57
2023/06/05 11:01:22;;;;;;;1.23;1.20;;;25.60;26.80;25.60;96068.00;;;;5013163;28;20214;-56
2023/06/05 11:03:57;;;;;;;1.83;1.73;;;25.90;26.10;25.70;96063.00;;;;5013019;28;20193;-58
2023/06/05 11:06:27;;;;;;;0.90;0.90;;;25.90;26.70;26.00;96072.00;;;;5012644;28;20679;-56
2023/06/05 11:09:13;;;;;;;1.40;1.30;;;26.20;29.00;25.60;96063.00;;;;5012855;28;20229;-56
2023/06/05 11:11:59;;;;;;;0.90;0.90;;;26.10;25.60;25.60;96053.00;;;;5012519;28;20308;-55
2023/06/05 11:14:47;;;;;;;1.08;0.98;;;25.90;25.60;25.60;96050.00;;;;5012529;28;20276;-56
2023/06/05 11:17:34;;;;;;;1.23;1.23;;;25.90;25.50;25.80;96077.00;;;;5012893;28;20195;-57
2023/06/05 11:20:05;;;;;;;1.42;1.35;;;26.00;26.10;25.70;96053.00;;;;5011960;28;20193;-57
2023/06/05 11:22:33;;;;;;;2.58;2.00;;;26.10;25.90;25.70;96078.00;;;;5012697;28;20209;-56